createdAt,value
2018-12-16T00:00:43.579Z,980.62
2018-12-16T00:01:43.491Z,980.61
2018-12-16T00:02:43.296Z,980.59
2018-12-16T00:03:43.204Z,980.56
2018-12-16T00:04:49.664Z,980.55
2018-12-16T00:05:43.024Z,980.52
2018-12-16T00:06:42.940Z,980.49
2018-12-16T00:07:42.844Z,980.50
2018-12-16T00:08:42.860Z,980.47
2018-12-16T00:09:42.665Z,980.50
2018-12-16T00:10:42.576Z,980.45
2018-12-16T00:11:42.486Z,980.44
2018-12-16T00:12:42.393Z,980.42
2018-12-16T00:13:42.407Z,980.44
2018-12-16T00:14:42.213Z,980.42
2018-12-16T00:15:42.123Z,980.42
2018-12-16T00:16:42.033Z,980.42
2018-12-16T00:17:41.944Z,980.42
2018-12-16T00:18:41.957Z,980.38
2018-12-16T00:19:41.762Z,980.35
2018-12-16T00:20:41.672Z,980.30
2018-12-16T00:21:41.582Z,980.25
2018-12-16T00:22:41.492Z,980.27
2018-12-16T00:23:41.505Z,980.27
2018-12-16T00:24:41.316Z,980.26
2018-12-16T00:25:41.223Z,980.22
2018-12-16T00:26:41.132Z,980.19
2018-12-16T00:27:41.042Z,980.22
2018-12-16T00:28:41.057Z,980.22
2018-12-16T00:29:40.864Z,980.22
2018-12-16T00:30:40.771Z,980.22
2018-12-16T00:31:40.690Z,980.23
2018-12-16T00:32:40.611Z,980.20
2018-12-16T00:33:40.505Z,980.18
2018-12-16T00:34:40.411Z,980.20
2018-12-16T00:35:40.321Z,980.19
2018-12-16T00:36:40.230Z,980.17
2018-12-16T00:37:40.142Z,980.17
2018-12-16T00:38:40.049Z,980.14
2018-12-16T00:39:39.959Z,980.08
2018-12-16T00:40:39.868Z,980.11
2018-12-16T00:41:39.790Z,980.09
2018-12-16T00:42:39.688Z,980.06
2018-12-16T00:43:39.599Z,980.04
2018-12-16T00:44:39.506Z,980.02
2018-12-16T00:45:39.415Z,980.01
2018-12-16T00:46:39.328Z,979.98
2018-12-16T00:47:39.342Z,979.99
2018-12-16T00:48:39.145Z,979.96
2018-12-16T00:49:39.056Z,979.92
2018-12-16T00:50:38.967Z,979.95
2018-12-16T00:51:38.877Z,979.93
2018-12-16T00:52:38.786Z,979.89
2018-12-16T00:53:38.696Z,979.86
2018-12-16T00:54:38.605Z,979.81
2018-12-16T00:55:38.619Z,979.83
2018-12-16T00:56:38.423Z,979.78
2018-12-16T00:57:38.333Z,979.79
2018-12-16T00:58:38.243Z,979.84
2018-12-16T00:59:38.156Z,979.80
2018-12-16T01:00:38.165Z,979.75
2018-12-16T01:01:37.971Z,979.77
2018-12-16T01:02:37.879Z,979.71
2018-12-16T01:03:37.790Z,979.67
2018-12-16T01:04:37.699Z,979.66
2018-12-16T01:05:37.612Z,979.63
2018-12-16T01:06:37.520Z,979.67
2018-12-16T01:07:37.431Z,979.64
2018-12-16T01:08:37.337Z,979.64
2018-12-16T01:09:37.247Z,979.62
2018-12-16T01:10:37.157Z,979.62
2018-12-16T01:11:37.070Z,979.60
2018-12-16T01:12:36.974Z,979.59
2018-12-16T01:13:36.897Z,979.60
2018-12-16T01:14:36.795Z,979.62
2018-12-16T01:15:36.704Z,979.60
2018-12-16T01:16:36.613Z,979.64
2018-12-16T01:17:36.522Z,979.64
2018-12-16T01:18:36.543Z,979.60
2018-12-16T01:19:36.355Z,979.63
2018-12-16T01:20:36.251Z,979.61
2018-12-16T01:21:36.163Z,979.56
2018-12-16T01:22:36.071Z,979.58
2018-12-16T01:23:35.988Z,979.59
2018-12-16T01:24:35.892Z,979.56
2018-12-16T01:25:35.798Z,979.54
2018-12-16T01:26:35.713Z,979.53
2018-12-16T01:27:35.620Z,979.49
2018-12-16T01:28:35.528Z,979.49
2018-12-16T01:29:35.548Z,979.50
2018-12-16T01:30:35.350Z,979.48
2018-12-16T01:31:35.258Z,979.47
2018-12-16T01:32:35.169Z,979.46
2018-12-16T01:33:35.077Z,979.47
2018-12-16T01:34:34.986Z,979.49
2018-12-16T01:35:34.898Z,979.43
2018-12-16T01:36:34.804Z,979.44
2018-12-16T01:37:34.712Z,979.42
2018-12-16T01:38:34.624Z,979.39
2018-12-16T01:39:34.532Z,979.37
2018-12-16T01:40:34.544Z,979.32
2018-12-16T01:41:34.458Z,979.31
2018-12-16T01:42:34.260Z,979.30
2018-12-16T01:43:34.169Z,979.27
2018-12-16T01:44:34.077Z,979.30
2018-12-16T01:45:33.990Z,979.29
2018-12-16T01:46:33.897Z,979.32
2018-12-16T01:47:33.807Z,979.27
2018-12-16T01:48:33.715Z,979.22
2018-12-16T01:49:33.625Z,979.22
2018-12-16T01:50:33.538Z,979.22
2018-12-16T01:51:33.445Z,979.22
2018-12-16T01:52:33.353Z,979.22
2018-12-16T01:53:33.263Z,979.22
2018-12-16T01:54:33.277Z,979.20
2018-12-16T01:55:33.081Z,979.24
2018-12-16T01:56:33.098Z,979.21
2018-12-16T01:57:32.902Z,979.17
2018-12-16T01:58:32.811Z,979.18
2018-12-16T01:59:32.824Z,979.16
2018-12-16T02:00:32.628Z,979.12
2018-12-16T02:01:32.539Z,979.13
2018-12-16T02:02:32.448Z,979.10
2018-12-16T02:03:32.357Z,979.05
2018-12-16T02:04:32.373Z,979.05
2018-12-16T02:05:32.175Z,979.05
2018-12-16T02:06:32.085Z,978.98
2018-12-16T02:07:31.996Z,979.00
2018-12-16T02:08:31.902Z,978.92
2018-12-16T02:09:31.917Z,978.89
2018-12-16T02:10:31.723Z,978.89
2018-12-16T02:11:31.735Z,978.84
2018-12-16T02:12:31.544Z,978.84
2018-12-16T02:13:31.454Z,978.84
2018-12-16T02:14:31.462Z,978.83
2018-12-16T02:15:31.270Z,978.84
2018-12-16T02:16:31.176Z,978.80
2018-12-16T02:17:31.091Z,978.76
2018-12-16T02:18:31.101Z,978.79
2018-12-16T02:19:30.907Z,978.77
2018-12-16T02:20:30.819Z,978.76
2018-12-16T02:21:30.725Z,978.75
2018-12-16T02:22:30.674Z,978.77
2018-12-16T02:23:30.543Z,978.74
2018-12-16T02:24:30.556Z,978.71
2018-12-16T02:25:30.360Z,978.71
2018-12-16T02:26:30.377Z,978.70
2018-12-16T02:27:30.179Z,978.66
2018-12-16T02:28:30.088Z,978.64
2018-12-16T02:29:30.106Z,978.61
2018-12-16T02:30:29.907Z,978.56
2018-12-16T02:31:29.816Z,978.56
2018-12-16T02:32:29.728Z,978.49
2018-12-16T02:33:29.644Z,978.49
2018-12-16T02:34:29.649Z,978.43
2018-12-16T02:35:29.456Z,978.36
2018-12-16T02:36:29.365Z,978.35
2018-12-16T02:37:29.270Z,978.35
2018-12-16T02:38:29.181Z,978.31
2018-12-16T02:39:29.195Z,978.29
2018-12-16T02:40:28.999Z,978.26
2018-12-16T02:41:28.913Z,978.24
2018-12-16T02:42:28.921Z,978.21
2018-12-16T02:43:28.729Z,978.22
2018-12-16T02:44:28.740Z,978.19
2018-12-16T02:45:28.546Z,978.18
2018-12-16T02:46:28.455Z,978.11
2018-12-16T02:47:28.366Z,978.07
2018-12-16T02:48:28.275Z,978.05
2018-12-16T02:49:28.182Z,977.97
2018-12-16T02:50:28.100Z,978.01
2018-12-16T02:51:28.002Z,978.02
2018-12-16T02:52:27.909Z,978.06
2018-12-16T02:53:27.820Z,978.03
2018-12-16T02:54:27.839Z,977.99
2018-12-16T02:55:27.639Z,977.99
2018-12-16T02:56:27.547Z,978.00
2018-12-16T02:57:27.561Z,978.07
2018-12-16T02:58:27.368Z,978.05
2018-12-16T02:59:27.385Z,978.14
2018-12-16T03:00:27.182Z,978.14
2018-12-16T03:01:27.099Z,978.17
2018-12-16T03:02:27.015Z,978.16
2018-12-16T03:03:26.912Z,978.13
2018-12-16T03:04:26.823Z,978.09
2018-12-16T03:05:26.731Z,978.09
2018-12-16T03:06:26.642Z,978.08
2018-12-16T03:07:26.549Z,978.12
2018-12-16T03:08:26.462Z,978.14
2018-12-16T03:09:26.377Z,978.12
2018-12-16T03:10:26.278Z,978.10
2018-12-16T03:11:26.191Z,978.11
2018-12-16T03:12:26.096Z,978.09
2018-12-16T03:13:26.111Z,978.11
2018-12-16T03:14:25.920Z,978.07
2018-12-16T03:15:25.822Z,978.11
2018-12-16T03:16:25.732Z,978.10
2018-12-16T03:17:25.646Z,978.12
2018-12-16T03:18:25.655Z,978.11
2018-12-16T03:19:25.482Z,978.07
2018-12-16T03:20:25.367Z,978.10
2018-12-16T03:21:25.281Z,978.09
2018-12-16T03:22:25.188Z,978.06
2018-12-16T03:23:25.098Z,978.07
2018-12-16T03:24:25.109Z,978.03
2018-12-16T03:25:24.918Z,978.01
2018-12-16T03:26:24.826Z,977.98
2018-12-16T03:27:24.736Z,977.98
2018-12-16T03:28:24.643Z,978.01
2018-12-16T03:29:24.551Z,977.96
2018-12-16T03:30:24.465Z,978.00
2018-12-16T03:31:24.372Z,978.00
2018-12-16T03:32:24.280Z,977.99
2018-12-16T03:33:24.190Z,977.93
2018-12-16T03:34:24.203Z,977.94
2018-12-16T03:35:24.006Z,977.92
2018-12-16T03:36:23.915Z,977.91
2018-12-16T03:37:23.825Z,977.93
2018-12-16T03:38:23.736Z,977.87
2018-12-16T03:39:23.749Z,977.87
2018-12-16T03:40:23.552Z,977.86
2018-12-16T03:41:23.462Z,977.82
2018-12-16T03:42:23.373Z,977.86
2018-12-16T03:43:23.279Z,977.83
2018-12-16T03:44:23.295Z,977.83
2018-12-16T03:45:23.097Z,977.86
2018-12-16T03:46:23.007Z,977.86
2018-12-16T03:47:22.916Z,977.89
2018-12-16T03:48:22.830Z,977.87
2018-12-16T03:49:22.735Z,977.82
2018-12-16T03:50:22.649Z,977.86
2018-12-16T03:51:22.556Z,977.86
2018-12-16T03:52:22.466Z,977.86
2018-12-16T03:53:22.371Z,977.88
2018-12-16T03:54:22.390Z,977.82
2018-12-16T03:55:22.195Z,977.80
2018-12-16T03:56:22.206Z,977.76
2018-12-16T03:57:22.113Z,977.74
2018-12-16T03:58:22.022Z,977.75
2018-12-16T03:59:21.937Z,977.75
2018-12-16T04:00:21.737Z,977.70
2018-12-16T04:01:28.970Z,977.70
2018-12-16T04:03:25.967Z,977.74
2018-12-16T04:04:25.821Z,977.72
2018-12-16T04:06:29.615Z,977.67
2018-12-16T04:07:29.521Z,977.66
2018-12-16T04:09:33.372Z,977.63
2018-12-16T04:10:33.222Z,977.64
2018-12-16T04:12:25.962Z,977.61
2018-12-16T04:13:25.855Z,977.60
2018-12-16T04:15:30.177Z,977.60
2018-12-16T04:16:30.034Z,977.54
2018-12-16T04:18:33.879Z,977.53
2018-12-16T04:19:33.737Z,977.54
2018-12-16T04:21:38.008Z,977.52
2018-12-16T04:22:37.911Z,977.50
2018-12-16T04:24:41.770Z,977.49
2018-12-16T04:25:41.626Z,977.48
2018-12-16T04:26:41.535Z,977.46
2018-12-16T04:27:41.445Z,977.48
2018-12-16T04:28:41.353Z,977.48
2018-12-16T04:29:41.263Z,977.50
2018-12-16T04:30:41.174Z,977.50
2018-12-16T04:31:41.082Z,977.49
2018-12-16T04:32:40.992Z,977.50
2018-12-16T04:33:40.899Z,977.50
2018-12-16T04:34:40.810Z,977.50
2018-12-16T04:35:40.717Z,977.48
2018-12-16T04:36:40.631Z,977.43
2018-12-16T04:37:40.537Z,977.40
2018-12-16T04:38:40.444Z,977.42
2018-12-16T04:39:40.357Z,977.34
2018-12-16T04:40:40.268Z,977.33
2018-12-16T04:41:40.176Z,977.23
2018-12-16T04:42:40.086Z,977.27
2018-12-16T04:43:39.997Z,977.18
2018-12-16T04:44:39.904Z,977.16
2018-12-16T04:45:39.814Z,977.10
2018-12-16T04:46:39.722Z,977.05
2018-12-16T04:47:39.631Z,977.00
2018-12-16T04:48:39.547Z,977.04
2018-12-16T04:49:39.450Z,976.96
2018-12-16T04:50:39.363Z,976.98
2018-12-16T04:51:39.275Z,977.00
2018-12-16T04:52:39.181Z,977.00
2018-12-16T04:53:39.088Z,976.96
2018-12-16T04:54:39.000Z,977.00
2018-12-16T04:55:38.906Z,976.98
2018-12-16T04:56:38.817Z,976.91
2018-12-16T04:57:38.738Z,976.94
2018-12-16T04:58:38.635Z,976.87
2018-12-16T04:59:38.545Z,976.92
2018-12-16T05:00:38.456Z,976.91
2018-12-16T05:01:38.362Z,976.91
2018-12-16T05:02:38.270Z,976.90
2018-12-16T05:03:38.184Z,976.94
2018-12-16T05:04:38.091Z,976.94
2018-12-16T05:05:38.002Z,976.99
2018-12-16T05:06:37.911Z,977.02
2018-12-16T05:07:37.819Z,977.01
2018-12-16T05:08:37.733Z,977.05
2018-12-16T05:09:37.649Z,977.06
2018-12-16T05:10:37.564Z,977.08
2018-12-16T05:11:37.458Z,977.11
2018-12-16T05:12:37.370Z,977.14
2018-12-16T05:13:37.277Z,977.10
2018-12-16T05:14:37.184Z,977.11
2018-12-16T05:15:37.094Z,977.10
2018-12-16T05:16:37.006Z,977.06
2018-12-16T05:17:36.913Z,977.05
2018-12-16T05:18:36.844Z,977.04
2018-12-16T05:19:36.732Z,976.97
2018-12-16T05:20:36.642Z,976.90
2018-12-16T05:21:36.550Z,976.87
2018-12-16T05:22:36.461Z,976.87
2018-12-16T05:23:41.776Z,976.84
2018-12-16T05:24:36.278Z,976.79
2018-12-16T05:25:36.189Z,976.78
2018-12-16T05:26:36.101Z,976.80
2018-12-16T05:27:36.009Z,976.78
2018-12-16T05:28:35.919Z,976.84
2018-12-16T05:29:35.828Z,976.83
2018-12-16T05:30:35.737Z,976.86
2018-12-16T05:31:35.647Z,976.89
2018-12-16T05:32:35.556Z,976.86
2018-12-16T05:33:35.468Z,976.80
2018-12-16T05:34:35.384Z,976.84
2018-12-16T05:35:35.284Z,976.81
2018-12-16T05:36:35.200Z,976.83
2018-12-16T05:37:35.103Z,976.85
2018-12-16T05:38:35.013Z,976.84
2018-12-16T05:39:34.923Z,976.85
2018-12-16T05:40:34.831Z,976.86
2018-12-16T05:41:34.740Z,976.87
2018-12-16T05:42:34.665Z,976.84
2018-12-16T05:43:34.557Z,976.83
2018-12-16T05:44:34.521Z,976.74
2018-12-16T05:45:34.377Z,976.74
2018-12-16T05:46:34.287Z,976.70
2018-12-16T05:47:34.198Z,976.71
2018-12-16T05:48:34.107Z,976.81
2018-12-16T05:49:34.018Z,976.84
2018-12-16T05:50:33.925Z,976.86
2018-12-16T05:51:33.835Z,976.95
2018-12-16T05:52:33.746Z,976.93
2018-12-16T05:53:33.653Z,976.88
2018-12-16T05:54:33.563Z,976.88
2018-12-16T05:55:33.472Z,976.86
2018-12-16T05:56:33.383Z,976.88
2018-12-16T05:57:33.290Z,976.90
2018-12-16T05:58:33.200Z,976.90
2018-12-16T05:59:33.108Z,976.92
2018-12-16T06:00:33.020Z,976.91
2018-12-16T06:01:32.927Z,976.93
2018-12-16T06:02:32.836Z,976.90
2018-12-16T06:03:32.748Z,976.88
2018-12-16T06:04:32.659Z,976.90
2018-12-16T06:05:32.568Z,976.90
2018-12-16T06:06:32.479Z,976.93
2018-12-16T06:07:32.386Z,976.85
2018-12-16T06:08:32.296Z,976.84
2018-12-16T06:09:32.204Z,976.86
2018-12-16T06:10:32.115Z,976.75
2018-12-16T06:11:32.024Z,976.72
2018-12-16T06:12:31.933Z,976.65
2018-12-16T06:13:31.840Z,976.59
2018-12-16T06:14:31.755Z,976.59
2018-12-16T06:15:31.664Z,976.62
2018-12-16T06:16:31.571Z,976.65
2018-12-16T06:17:31.482Z,976.70
2018-12-16T06:18:31.391Z,976.71
2018-12-16T06:19:31.303Z,976.68
2018-12-16T06:20:31.210Z,976.68
2018-12-16T06:21:31.120Z,976.68
2018-12-16T06:22:31.027Z,976.63
2018-12-16T06:23:30.940Z,976.69
2018-12-16T06:24:30.849Z,976.66
2018-12-16T06:25:30.765Z,976.71
2018-12-16T06:26:30.667Z,976.73
2018-12-16T06:27:30.578Z,976.76
2018-12-16T06:28:30.485Z,976.77
2018-12-16T06:29:30.393Z,976.79
2018-12-16T06:30:30.303Z,976.79
2018-12-16T06:31:30.213Z,976.85
2018-12-16T06:32:30.125Z,976.87
2018-12-16T06:33:30.030Z,976.90
2018-12-16T06:34:29.943Z,976.99
2018-12-16T06:35:29.859Z,976.96
2018-12-16T06:36:29.763Z,976.90
2018-12-16T06:37:29.671Z,976.89
2018-12-16T06:38:29.580Z,976.84
2018-12-16T06:39:29.492Z,976.83
2018-12-16T06:40:29.401Z,976.78
2018-12-16T06:41:29.312Z,976.75
2018-12-16T06:42:29.218Z,976.83
2018-12-16T06:43:29.130Z,976.86
2018-12-16T06:44:29.038Z,976.86
2018-12-16T06:45:28.948Z,976.87
2018-12-16T06:46:28.856Z,976.89
2018-12-16T06:47:28.765Z,976.87
2018-12-16T06:48:28.678Z,976.83
2018-12-16T06:49:28.585Z,976.82
2018-12-16T06:50:28.496Z,976.79
2018-12-16T06:51:28.409Z,976.77
2018-12-16T06:52:28.329Z,976.73
2018-12-16T06:53:28.227Z,976.68
2018-12-16T06:54:28.137Z,976.65
2018-12-16T06:55:28.046Z,976.65
2018-12-16T06:56:27.953Z,976.62
2018-12-16T06:57:27.862Z,976.61
2018-12-16T06:58:27.785Z,976.62
2018-12-16T06:59:27.683Z,976.55
2018-12-16T07:00:27.590Z,976.57
2018-12-16T07:01:27.499Z,976.62
2018-12-16T07:02:27.410Z,976.67
2018-12-16T07:03:27.319Z,976.70
2018-12-16T07:04:27.229Z,976.72
2018-12-16T07:05:27.143Z,976.75
2018-12-16T07:06:27.048Z,976.75
2018-12-16T07:07:26.964Z,976.74
2018-12-16T07:08:26.872Z,976.72
2018-12-16T07:09:26.787Z,976.68
2018-12-16T07:10:26.686Z,976.68
2018-12-16T07:11:26.597Z,976.65
2018-12-16T07:12:26.536Z,976.63
2018-12-16T07:13:26.421Z,976.65
2018-12-16T07:14:26.327Z,976.65
2018-12-16T07:15:26.235Z,976.60
2018-12-16T07:16:26.176Z,976.62
2018-12-16T07:17:26.058Z,976.63
2018-12-16T07:18:26.001Z,976.54
2018-12-16T07:19:25.873Z,976.53
2018-12-16T07:20:25.794Z,976.57
2018-12-16T07:21:25.693Z,976.54
2018-12-16T07:22:25.602Z,976.57
2018-12-16T07:23:25.546Z,976.64
2018-12-16T07:24:25.447Z,976.62
2018-12-16T07:25:25.332Z,976.59
2018-12-16T07:26:25.278Z,976.57
2018-12-16T07:27:25.161Z,976.62
2018-12-16T07:28:25.062Z,976.64
2018-12-16T07:29:24.973Z,976.64
2018-12-16T07:30:24.916Z,976.68
2018-12-16T07:31:24.831Z,976.64
2018-12-16T07:32:24.699Z,976.68
2018-12-16T07:33:24.611Z,976.67
2018-12-16T07:34:24.520Z,976.66
2018-12-16T07:35:24.428Z,976.69
2018-12-16T07:36:24.352Z,976.72
2018-12-16T07:37:24.269Z,976.76
2018-12-16T07:38:24.191Z,976.74
2018-12-16T07:39:24.073Z,976.77
2018-12-16T07:40:23.977Z,976.82
2018-12-16T07:41:23.903Z,976.80
2018-12-16T07:42:23.800Z,976.76
2018-12-16T07:43:23.738Z,976.78
2018-12-16T07:44:23.615Z,976.75
2018-12-16T07:45:23.524Z,976.75
2018-12-16T07:46:23.437Z,976.69
2018-12-16T07:47:23.344Z,976.72
2018-12-16T07:48:23.257Z,976.77
2018-12-16T07:49:23.188Z,976.78
2018-12-16T07:50:23.073Z,976.81
2018-12-16T07:51:23.001Z,976.84
2018-12-16T07:52:22.897Z,976.83
2018-12-16T07:53:22.801Z,976.84
2018-12-16T07:54:22.722Z,976.93
2018-12-16T07:55:22.626Z,976.87
2018-12-16T07:56:22.533Z,976.91
2018-12-16T07:57:22.443Z,976.88
2018-12-16T07:58:22.351Z,976.92
2018-12-16T07:59:22.263Z,976.93
2018-12-16T08:00:22.194Z,976.92
2018-12-16T08:01:22.085Z,976.91
2018-12-16T08:02:21.992Z,976.85
2018-12-16T08:03:21.943Z,976.80
2018-12-16T08:04:21.811Z,976.82
2018-12-16T08:05:21.729Z,976.79
2018-12-16T08:06:21.631Z,976.75
2018-12-16T08:07:21.540Z,976.74
2018-12-16T08:08:21.449Z,976.68
2018-12-16T08:09:21.364Z,976.67
2018-12-16T08:10:21.274Z,976.70
2018-12-16T08:11:21.178Z,976.71
2018-12-16T08:12:21.091Z,976.73
2018-12-16T08:13:21.000Z,976.74
2018-12-16T08:14:20.912Z,976.69
2018-12-16T08:15:20.819Z,976.69
2018-12-16T08:16:20.732Z,976.65
2018-12-16T08:17:20.644Z,976.63
2018-12-16T08:18:20.550Z,976.68
2018-12-16T08:19:20.462Z,976.66
2018-12-16T08:20:20.371Z,976.60
2018-12-16T08:21:20.283Z,976.62
2018-12-16T08:22:20.188Z,976.65
2018-12-16T08:23:20.100Z,976.65
2018-12-16T08:24:23.089Z,976.67
2018-12-16T08:25:19.924Z,976.60
2018-12-16T08:26:19.830Z,976.61
2018-12-16T08:27:19.738Z,976.56
2018-12-16T08:28:19.649Z,976.52
2018-12-16T08:29:19.559Z,976.51
2018-12-16T08:30:19.471Z,976.54
2018-12-16T08:31:19.382Z,976.48
2018-12-16T08:32:19.291Z,976.50
2018-12-16T08:33:19.200Z,976.45
2018-12-16T08:34:19.111Z,976.42
2018-12-16T08:35:19.019Z,976.40
2018-12-16T08:36:18.933Z,976.43
2018-12-16T08:37:18.918Z,976.40
2018-12-16T08:38:18.754Z,976.40
2018-12-16T08:39:18.660Z,976.41
2018-12-16T08:40:18.572Z,976.44
2018-12-16T08:41:18.489Z,976.47
2018-12-16T08:42:18.392Z,976.44
2018-12-16T08:43:18.300Z,976.49
2018-12-16T08:44:18.217Z,976.44
2018-12-16T08:45:18.122Z,976.43
2018-12-16T08:46:18.031Z,976.40
2018-12-16T08:47:17.945Z,976.42
2018-12-16T08:48:17.852Z,976.46
2018-12-16T08:49:17.761Z,976.43
2018-12-16T08:50:17.674Z,976.44
2018-12-16T08:51:17.582Z,976.41
2018-12-16T08:52:17.492Z,976.40
2018-12-16T08:53:17.402Z,976.36
2018-12-16T08:54:17.313Z,976.30
2018-12-16T08:55:17.224Z,976.32
2018-12-16T08:56:17.139Z,976.29
2018-12-16T08:57:17.044Z,976.32
2018-12-16T08:58:16.953Z,976.36
2018-12-16T08:59:16.866Z,976.36
2018-12-16T09:00:16.774Z,976.40
2018-12-16T09:01:16.685Z,976.37
2018-12-16T09:02:16.594Z,976.37
2018-12-16T09:03:16.508Z,976.36
2018-12-16T09:04:16.422Z,976.41
2018-12-16T09:05:16.326Z,976.44
2018-12-16T09:06:16.235Z,976.42
2018-12-16T09:07:16.145Z,976.41
2018-12-16T09:08:16.057Z,976.37
2018-12-16T09:09:15.966Z,976.30
2018-12-16T09:10:15.877Z,976.29
2018-12-16T09:11:15.787Z,976.22
2018-12-16T09:12:15.698Z,976.21
2018-12-16T09:13:15.609Z,976.17
2018-12-16T09:14:15.519Z,976.14
2018-12-16T09:15:15.431Z,976.16
2018-12-16T09:16:15.339Z,976.14
2018-12-16T09:17:15.247Z,976.19
2018-12-16T09:18:15.160Z,976.25
2018-12-16T09:19:15.070Z,976.31
2018-12-16T09:20:14.979Z,976.32
2018-12-16T09:21:14.889Z,976.32
2018-12-16T09:22:14.805Z,976.32
2018-12-16T09:23:14.713Z,976.34
2018-12-16T09:24:14.621Z,976.31
2018-12-16T09:25:14.533Z,976.29
2018-12-16T09:26:14.442Z,976.27
2018-12-16T09:27:14.354Z,976.25
2018-12-16T09:28:14.263Z,976.32
2018-12-16T09:29:14.173Z,976.29
2018-12-16T09:30:14.089Z,976.36
2018-12-16T09:31:13.992Z,976.39
2018-12-16T09:32:13.905Z,976.37
2018-12-16T09:33:13.818Z,976.36
2018-12-16T09:34:13.761Z,976.35
2018-12-16T09:35:13.638Z,976.36
2018-12-16T09:36:13.553Z,976.34
2018-12-16T09:37:13.461Z,976.29
2018-12-16T09:38:13.369Z,976.33
2018-12-16T09:39:13.289Z,976.33
2018-12-16T09:40:13.188Z,976.33
2018-12-16T09:41:13.098Z,976.32
2018-12-16T09:42:13.007Z,976.31
2018-12-16T09:43:12.931Z,976.31
2018-12-16T09:44:12.831Z,976.29
2018-12-16T09:45:12.746Z,976.31
2018-12-16T09:46:12.648Z,976.35
2018-12-16T09:47:12.559Z,976.35
2018-12-16T09:48:12.492Z,976.36
2018-12-16T09:49:12.381Z,976.35
2018-12-16T09:50:12.291Z,976.36
2018-12-16T09:51:12.207Z,976.31
2018-12-16T09:52:12.120Z,976.30
2018-12-16T09:53:12.025Z,976.33
2018-12-16T09:54:11.933Z,976.33
2018-12-16T09:55:11.843Z,976.31
2018-12-16T09:56:11.762Z,976.27
2018-12-16T09:57:11.665Z,976.34
2018-12-16T09:58:11.574Z,976.26
2018-12-16T09:59:11.484Z,976.21
2018-12-16T10:00:11.397Z,976.16
2018-12-16T10:01:11.304Z,976.14
2018-12-16T10:02:18.863Z,976.15
2018-12-16T10:04:15.544Z,976.09
2018-12-16T10:05:15.407Z,976.10
2018-12-16T10:07:19.777Z,976.11
2018-12-16T10:08:19.587Z,976.11
2018-12-16T10:10:23.861Z,976.13
2018-12-16T10:11:23.768Z,976.10
2018-12-16T10:13:17.033Z,976.05
2018-12-16T10:14:16.895Z,976.07
2018-12-16T10:16:21.220Z,976.11
2018-12-16T10:17:21.084Z,976.08
2018-12-16T10:19:25.370Z,976.11
2018-12-16T10:20:25.273Z,976.15
2018-12-16T10:22:29.605Z,976.16
2018-12-16T10:23:29.472Z,976.16
2018-12-16T10:25:33.758Z,976.17
2018-12-16T10:26:33.660Z,976.19
2018-12-16T10:27:33.570Z,976.21
2018-12-16T10:28:33.482Z,976.21
2018-12-16T10:29:33.397Z,976.24
2018-12-16T10:30:33.302Z,976.15
2018-12-16T10:31:33.213Z,976.16
2018-12-16T10:32:33.122Z,976.09
2018-12-16T10:33:33.034Z,976.09
2018-12-16T10:34:32.943Z,976.04
2018-12-16T10:35:32.876Z,976.00
2018-12-16T10:36:32.791Z,975.98
2018-12-16T10:37:32.701Z,975.97
2018-12-16T10:38:32.587Z,975.90
2018-12-16T10:39:32.509Z,975.94
2018-12-16T10:40:32.410Z,975.94
2018-12-16T10:41:32.325Z,975.95
2018-12-16T10:42:32.233Z,975.97
2018-12-16T10:43:32.143Z,975.94
2018-12-16T10:44:32.052Z,975.93
2018-12-16T10:45:31.963Z,975.90
2018-12-16T10:46:31.873Z,975.87
2018-12-16T10:47:31.785Z,975.85
2018-12-16T10:48:31.698Z,975.83
2018-12-16T10:49:31.614Z,975.80
2018-12-16T10:50:31.518Z,975.77
2018-12-16T10:51:31.478Z,975.76
2018-12-16T10:52:31.339Z,975.75
2018-12-16T10:53:31.251Z,975.74
2018-12-16T10:54:31.159Z,975.74
2018-12-16T10:55:31.070Z,975.83
2018-12-16T10:56:30.983Z,975.79
2018-12-16T10:57:30.894Z,975.83
2018-12-16T10:58:30.803Z,975.78
2018-12-16T10:59:30.715Z,975.81
2018-12-16T11:00:30.710Z,975.80
2018-12-16T11:01:30.535Z,975.81
2018-12-16T11:02:30.445Z,975.83
2018-12-16T11:03:30.358Z,975.86
2018-12-16T11:04:30.267Z,975.82
2018-12-16T11:05:30.182Z,975.90
2018-12-16T11:06:30.090Z,975.91
2018-12-16T11:07:30.002Z,975.92
2018-12-16T11:08:29.911Z,975.87
2018-12-16T11:09:29.824Z,975.87
2018-12-16T11:10:29.733Z,975.86
2018-12-16T11:11:29.644Z,975.81
2018-12-16T11:12:29.555Z,975.84
2018-12-16T11:13:29.466Z,975.84
2018-12-16T11:14:29.423Z,975.76
2018-12-16T11:15:29.295Z,975.76
2018-12-16T11:16:29.200Z,975.77
2018-12-16T11:17:29.113Z,975.78
2018-12-16T11:18:29.019Z,975.69
2018-12-16T11:19:28.933Z,975.70
2018-12-16T11:20:28.844Z,975.72
2018-12-16T11:21:28.752Z,975.71
2018-12-16T11:22:28.663Z,975.72
2018-12-16T11:23:28.577Z,975.74
2018-12-16T11:24:28.485Z,975.73
2018-12-16T11:25:28.399Z,975.71
2018-12-16T11:26:28.310Z,975.71
2018-12-16T11:27:28.244Z,975.71
2018-12-16T11:28:28.132Z,975.69
2018-12-16T11:29:28.042Z,975.66
2018-12-16T11:30:27.970Z,975.65
2018-12-16T11:31:27.862Z,975.60
2018-12-16T11:32:27.776Z,975.64
2018-12-16T11:33:27.690Z,975.60
2018-12-16T11:34:27.598Z,975.57
2018-12-16T11:35:27.526Z,975.58
2018-12-16T11:36:27.419Z,975.61
2018-12-16T11:37:27.336Z,975.60
2018-12-16T11:38:27.242Z,975.63
2018-12-16T11:39:27.153Z,975.61
2018-12-16T11:40:27.063Z,975.58
2018-12-16T11:41:26.975Z,975.61
2018-12-16T11:42:26.887Z,975.64
2018-12-16T11:43:26.798Z,975.64
2018-12-16T11:44:27.355Z,975.67
2018-12-16T11:45:26.620Z,975.62
2018-12-16T11:46:26.530Z,975.65
2018-12-16T11:47:26.451Z,975.66
2018-12-16T11:48:26.356Z,975.63
2018-12-16T11:49:26.266Z,975.60
2018-12-16T11:50:26.179Z,975.57
2018-12-16T11:51:26.084Z,975.60
2018-12-16T11:52:25.998Z,975.59
2018-12-16T11:53:25.907Z,975.57
2018-12-16T11:54:25.818Z,975.63
2018-12-16T11:55:25.727Z,975.60
2018-12-16T11:56:25.681Z,975.55
2018-12-16T11:57:25.552Z,975.52
2018-12-16T11:58:25.462Z,975.54
2018-12-16T11:59:25.398Z,975.58
2018-12-16T12:00:25.316Z,975.54
2018-12-16T12:01:25.195Z,975.56
2018-12-16T12:02:25.141Z,975.54
2018-12-16T12:03:25.019Z,975.54
2018-12-16T12:04:24.941Z,975.56
2018-12-16T12:05:24.839Z,975.57
2018-12-16T12:06:24.750Z,975.59
2018-12-16T12:07:24.665Z,975.57
2018-12-16T12:08:24.646Z,975.64
2018-12-16T12:09:24.485Z,975.58
2018-12-16T12:10:24.395Z,975.54
2018-12-16T12:11:24.306Z,975.55
2018-12-16T12:12:24.216Z,975.51
2018-12-16T12:13:24.127Z,975.53
2018-12-16T12:14:24.042Z,975.58
2018-12-16T12:15:23.948Z,975.64
2018-12-16T12:16:23.861Z,975.61
2018-12-16T12:17:23.769Z,975.64
2018-12-16T12:18:23.682Z,975.63
2018-12-16T12:19:23.595Z,975.65
2018-12-16T12:20:23.503Z,975.62
2018-12-16T12:21:23.417Z,975.62
2018-12-16T12:22:23.327Z,975.65
2018-12-16T12:23:23.271Z,975.66
2018-12-16T12:24:23.148Z,975.64
2018-12-16T12:25:23.060Z,975.61
2018-12-16T12:26:22.969Z,975.62
2018-12-16T12:27:22.880Z,975.65
2018-12-16T12:28:22.795Z,975.62
2018-12-16T12:29:22.702Z,975.60
2018-12-16T12:30:22.613Z,975.60
2018-12-16T12:31:22.522Z,975.60
2018-12-16T12:32:22.436Z,975.58
2018-12-16T12:33:22.344Z,975.61
2018-12-16T12:34:22.256Z,975.60
2018-12-16T12:35:22.170Z,975.60
2018-12-16T12:36:22.080Z,975.57
2018-12-16T12:37:21.990Z,975.54
2018-12-16T12:38:21.902Z,975.51
2018-12-16T12:39:21.813Z,975.46
2018-12-16T12:40:21.721Z,975.49
2018-12-16T12:41:21.631Z,975.46
2018-12-16T12:42:21.544Z,975.43
2018-12-16T12:43:21.457Z,975.42
2018-12-16T12:44:21.367Z,975.39